Time;durP1;ratioP1;P1;durP2;ratioP2;P2;SDS_P1;SDS_P2;PMS_P1;PMS_P2;Temp;Humidity;BMP_temperature;BMP_pressure;BME280_temperature;BME280_humidity;BME280_pressure;Samples;Min_cycle;Max_cycle;Signal;HPM_P1;HPM_P2
2022/12/06 00:02:15;;;;;;;83.32;49.28;;;;;;;1.11;100.00;101813.59;10281512;28;20042;-83
2022/12/06 00:07:15;;;;;;;84.22;45.08;;;;;;;1.20;100.00;101804.97;10281663;28;20509;-85
2022/12/06 00:12:16;;;;;;;76.10;45.75;;;;;;;1.20;100.00;101807.53;10279938;28;20126;-85
2022/12/06 00:17:16;;;;;;;85.95;45.42;;;;;;;1.23;100.00;101813.94;10280903;28;20058;-85
2022/12/06 00:22:17;;;;;;;86.93;46.03;;;;;;;1.25;100.00;101807.25;10278895;28;20054;-85
2022/12/06 00:27:17;;;;;;;76.90;45.00;;;;;;;1.33;100.00;101807.13;10279267;28;20130;-85
2022/12/06 00:32:18;;;;;;;85.90;46.42;;;;;;;1.30;100.00;101807.72;10279316;28;20053;-85
2022/12/06 00:37:18;;;;;;;75.88;41.63;;;;;;;1.30;100.00;101803.47;10279847;28;20232;-85
2022/12/06 00:42:19;;;;;;;80.32;49.78;;;;;;;1.37;100.00;101794.66;10279259;28;20126;-85
2022/12/06 00:47:20;;;;;;;76.03;44.85;;;;;;;1.39;100.00;101797.41;10279799;28;20114;-86
2022/12/06 00:52:20;;;;;;;70.90;43.42;;;;;;;1.42;100.00;101802.88;10262590;28;20153;-84
2022/12/06 00:57:21;;;;;;;99.35;50.95;;;;;;;1.46;100.00;101797.25;10278811;28;20475;-84
2022/12/06 01:02:21;;;;;;;81.05;45.63;;;;;;;1.53;100.00;101801.34;10263702;28;20157;-85
2022/12/06 01:07:22;;;;;;;87.38;47.28;;;;;;;1.55;100.00;101803.34;10278399;28;20121;-85
2022/12/06 01:12:22;;;;;;;92.32;46.83;;;;;;;1.56;100.00;101796.50;10278455;28;20462;-85
2022/12/06 01:17:23;;;;;;;73.25;40.55;;;;;;;1.61;100.00;101798.78;10262609;28;20047;-85
2022/12/06 01:22:23;;;;;;;97.75;44.72;;;;;;;1.66;100.00;101799.22;10280004;28;20129;-85
2022/12/06 01:27:24;;;;;;;82.10;46.65;;;;;;;1.67;100.00;101797.56;10278238;28;20035;-85
2022/12/06 01:32:24;;;;;;;79.53;41.40;;;;;;;1.68;100.00;101795.13;10261020;28;20034;-85
2022/12/06 01:37:25;;;;;;;72.28;43.08;;;;;;;1.68;100.00;101804.56;10262309;28;20042;-84
2022/12/06 01:42:25;;;;;;;102.38;50.65;;;;;;;1.68;100.00;101801.97;10279186;28;20067;-85
2022/12/06 01:47:30;;;;;;;94.38;48.35;;;;;;;1.69;100.00;101804.69;10279542;28;20463;-85
2022/12/06 01:52:34;;;;;;;82.00;43.42;;;;;;;1.71;100.00;101802.28;10276692;28;20070;-85
2022/12/06 01:57:35;;;;;;;86.05;42.88;;;;;;;1.73;100.00;101803.34;10245877;28;20125;-85
2022/12/06 02:02:35;;;;;;;77.97;41.88;;;;;;;1.72;100.00;101804.09;10259908;28;20053;-85
2022/12/06 02:07:36;;;;;;;80.22;42.92;;;;;;;1.75;100.00;101801.81;10276933;28;20499;-85
2022/12/06 02:12:36;;;;;;;76.90;42.13;;;;;;;1.76;100.00;101794.19;10260430;28;20043;-83
2022/12/06 02:17:47;;;;;;;76.13;40.70;;;;;;;1.78;100.00;101796.03;10260512;28;20458;-84
2022/12/06 02:22:56;;;;;;;77.90;43.40;;;;;;;1.78;100.00;101794.38;10278549;28;20073;-84
2022/12/06 02:28:12;;;;;;;70.88;34.90;;;;;;;1.83;100.00;101789.63;10275540;28;20043;-84
2022/12/06 02:33:35;;;;;;;63.72;36.08;;;;;;;1.84;100.00;101789.81;10237182;28;20174;-84
2022/12/06 02:39:08;;;;;;;67.00;36.17;;;;;;;1.88;100.00;101783.25;10257590;28;20577;-82
2022/12/06 02:44:10;;;;;;;;;;;;;;;1.91;100.00;101778.38;10263389;28;20067;-84
2022/12/06 02:49:10;;;;;;;64.15;38.72;;;;;;;1.95;100.00;101774.44;10259813;28;19926;-84
2022/12/06 02:54:11;;;;;;;58.75;34.13;;;;;;;1.99;100.00;101782.63;10264792;28;20038;-83
2022/12/06 02:59:11;;;;;;;45.67;22.95;;;;;;;2.04;100.00;101781.41;10283203;28;20042;-83
2022/12/06 03:04:45;;;;;;;47.08;25.35;;;;;;;2.15;100.00;101779.84;10267624;28;20129;-84
2022/12/06 03:10:27;;;;;;;48.58;25.50;;;;;;;2.23;100.00;101778.00;10270307;28;20402;-84
2022/12/06 03:15:45;;;;;;;43.07;22.70;;;;;;;2.28;100.00;101778.44;10263119;28;20407;-84
2022/12/06 03:20:55;;;;;;;41.35;19.83;;;;;;;2.34;100.00;101774.75;10284461;28;20040;-84
2022/12/06 03:25:58;;;;;;;38.50;19.95;;;;;;;2.39;100.00;101767.47;10271155;28;20511;-84
2022/12/06 03:31:01;;;;;;;41.80;20.75;;;;;;;2.36;100.00;101767.19;10266933;28;20054;-84
2022/12/06 03:36:02;;;;;;;36.20;20.38;;;;;;;2.34;100.00;101772.19;10266739;28;20043;-84
2022/12/06 03:41:04;;;;;;;36.63;22.77;;;;;;;2.29;100.00;101776.00;10264762;28;20043;-84
2022/12/06 03:46:11;;;;;;;35.80;21.27;;;;;;;2.22;100.00;101775.28;10283893;28;20042;-84
2022/12/06 03:51:17;;;;;;;49.53;23.38;;;;;;;2.19;100.00;101769.06;10281837;28;20070;-84
2022/12/06 03:56:18;;;;;;;43.05;23.33;;;;;;;2.19;100.00;101774.22;10265862;28;20718;-83
2022/12/06 04:01:18;;;;;;;43.05;22.00;;;;;;;2.22;100.00;101765.84;10265338;28;20039;-83
2022/12/06 04:06:19;;;;;;;54.33;21.95;;;;;;;2.29;100.00;101772.53;10279878;28;20129;-84
2022/12/06 04:11:19;;;;;;;38.30;22.08;;;;;;;2.38;100.00;101767.31;10280784;28;20131;-84
2022/12/06 04:28:40;;;;;;;34.60;18.15;;;;;;;2.41;100.00;101772.75;10280099;28;20102;-84
2022/12/06 04:48:19;;;;;;;38.08;19.60;;;;;;;2.34;100.00;101782.53;10266590;28;20051;-84
2022/12/06 04:53:19;;;;;;;30.00;16.95;;;;;;;2.37;100.00;101783.56;10280877;28;20078;-84
2022/12/06 04:58:20;;;;;;;40.00;20.45;;;;;;;2.39;100.00;101777.81;10280808;28;20130;-83
2022/12/06 05:03:20;;;;;;;41.63;19.45;;;;;;;2.38;100.00;101778.56;10278823;28;20487;-84
2022/12/06 05:08:21;;;;;;;34.42;18.60;;;;;;;2.40;100.00;101773.53;10263198;28;20057;-85
2022/12/06 05:13:21;;;;;;;40.35;19.55;;;;;;;2.42;100.00;101777.16;10261457;28;20496;-85
2022/12/06 05:18:22;;;;;;;36.30;18.23;;;;;;;2.47;100.00;101778.53;10263299;28;20050;-85
2022/12/06 05:23:23;;;;;;;39.10;19.50;;;;;;;2.48;100.00;101781.25;10261885;28;20054;-84
2022/12/06 05:28:24;;;;;;;37.65;20.25;;;;;;;2.51;100.00;101774.56;10279889;28;20043;-84
2022/12/06 05:33:24;;;;;;;34.88;20.98;;;;;;;2.51;100.00;101778.03;10277138;28;20035;-84
2022/12/06 05:38:25;;;;;;;36.85;18.50;;;;;;;2.53;100.00;101779.09;10270642;28;20039;-84
2022/12/06 05:43:25;;;;;;;36.17;19.52;;;;;;;2.54;100.00;101780.03;10271096;28;20089;-80
2022/12/06 05:48:26;;;;;;;63.08;36.35;;;;;;;2.58;100.00;101769.22;10242117;28;20134;-81
2022/12/06 05:53:27;;;;;;;45.53;26.90;;;;;;;2.58;100.00;101770.09;10276151;28;20075;-83
2022/12/06 05:58:27;;;;;;;41.63;22.15;;;;;;;2.64;100.00;101764.63;10272099;28;20049;-83
2022/12/06 06:03:28;;;;;;;47.83;21.67;;;;;;;2.64;100.00;101772.38;10278814;28;20125;-83
2022/12/06 06:08:29;;;;;;;41.78;23.20;;;;;;;2.64;100.00;101783.59;10282599;28;20042;-83
2022/12/06 06:13:29;;;;;;;40.38;23.05;;;;;;;2.70;100.00;101785.88;10257295;28;20503;-84
2022/12/06 06:18:30;;;;;;;56.78;25.27;;;;;;;2.69;100.00;101777.97;10276042;28;20487;-82
2022/12/06 06:23:31;;;;;;;42.92;24.48;;;;;;;2.70;100.00;101780.72;10276622;28;20055;-82
2022/12/06 06:28:32;;;;;;;52.47;27.23;;;;;;;2.74;100.00;101776.72;10266874;28;20511;-80
2022/12/06 06:33:33;;;;;;;51.40;26.98;;;;;;;2.75;100.00;101776.88;10283137;28;20089;-81
2022/12/06 06:38:33;;;;;;;48.28;25.33;;;;;;;2.73;100.00;101785.25;10261106;28;20046;-80
2022/12/06 06:43:34;;;;;;;40.83;23.08;;;;;;;2.71;100.00;101774.78;10284107;28;20039;-80
2022/12/06 06:48:36;;;;;;;49.92;24.05;;;;;;;2.71;100.00;101779.94;10283378;28;20143;-80
2022/12/06 06:53:36;;;;;;;46.83;28.35;;;;;;;2.68;100.00;101764.13;10273243;28;20177;-79
2022/12/06 06:58:37;;;;;;;44.72;27.80;;;;;;;2.68;100.00;101774.47;10280209;28;20055;-80
2022/12/06 07:03:38;;;;;;;55.47;29.73;;;;;;;2.68;100.00;101776.13;10281599;28;20054;-80
2022/12/06 07:08:38;;;;;;;50.88;27.02;;;;;;;2.70;100.00;101777.19;10261619;28;20126;-80
2022/12/06 07:13:39;;;;;;;44.08;25.95;;;;;;;2.69;100.00;101771.13;10264604;28;20495;-80
2022/12/06 07:18:41;;;;;;;48.47;27.92;;;;;;;2.72;100.00;101773.06;10263187;28;20353;-79
2022/12/06 07:23:42;;;;;;;51.30;26.10;;;;;;;2.74;100.00;101771.53;10279861;28;20043;-79
2022/12/06 07:28:43;;;;;;;48.40;25.88;;;;;;;2.83;100.00;101764.66;10279305;28;20475;-80
2022/12/06 07:33:44;;;;;;;38.90;19.50;;;;;;;2.75;100.00;101766.53;10267574;28;20581;-80
2022/12/06 07:38:53;;;;;;;52.95;28.23;;;;;;;2.73;100.00;101770.66;10262697;28;20088;-84
2022/12/06 07:49:16;;;;;;;48.17;27.65;;;;;;;2.74;100.00;101772.47;10269700;28;20118;-84
2022/12/06 07:54:20;;;;;;;48.28;26.27;;;;;;;2.69;100.00;101778.88;10262596;28;20466;-86
2022/12/06 07:59:21;;;;;;;41.47;23.45;;;;;;;2.70;100.00;101788.47;10301871;28;20096;-86
2022/12/06 08:04:21;;;;;;;46.85;25.90;;;;;;;2.74;100.00;101790.56;10316969;28;20065;-86
2022/12/06 08:09:23;;;;;;;47.08;27.08;;;;;;;2.83;100.00;101802.53;10265476;28;20118;-86
2022/12/06 08:14:23;;;;;;;43.85;27.27;;;;;;;2.88;100.00;101804.78;10218308;28;20043;-85
2022/12/06 08:19:24;;;;;;;52.00;23.52;;;;;;;2.92;100.00;101803.41;10218238;28;20043;-85
2022/12/06 08:24:24;;;;;;;45.97;24.45;;;;;;;2.99;100.00;101808.38;10232045;28;20567;-88
2022/12/06 08:29:25;;;;;;;52.17;23.73;;;;;;;3.04;100.00;101809.72;10247464;28;20118;-87
2022/12/06 08:34:26;;;;;;;43.63;24.40;;;;;;;3.09;100.00;101810.13;10236049;28;20180;-85
2022/12/06 08:39:27;;;;;;;41.40;21.92;;;;;;;3.16;100.00;101815.09;10241849;28;20443;-83
2022/12/06 08:44:30;;;;;;;38.35;24.77;;;;;;;3.14;100.00;101815.75;10237047;28;20098;-84
2022/12/06 08:49:31;;;;;;;33.70;19.00;;;;;;;3.19;100.00;101817.09;10236197;28;20047;-84
2022/12/06 08:54:33;;;;;;;48.45;22.40;;;;;;;3.30;100.00;101819.00;10259409;28;20129;-83
2022/12/06 08:59:34;;;;;;;33.30;19.10;;;;;;;3.36;100.00;101823.81;10281436;28;20443;-83
2022/12/06 09:04:35;;;;;;;37.13;18.52;;;;;;;3.42;100.00;101826.06;10279975;28;20182;-84
2022/12/06 09:09:35;;;;;;;32.33;16.75;;;;;;;3.49;100.00;101826.75;10264753;28;20145;-83
2022/12/06 09:14:36;;;;;;;26.60;13.98;;;;;;;3.53;100.00;101825.38;10250477;28;20181;-83
2022/12/06 09:19:36;;;;;;;22.17;12.80;;;;;;;3.66;100.00;101832.56;10275146;28;20046;-83
2022/12/06 09:24:37;;;;;;;29.95;17.75;;;;;;;3.80;100.00;101831.22;10260203;28;20035;-84
2022/12/06 09:29:38;;;;;;;27.95;14.38;;;;;;;3.94;100.00;101835.06;10244179;28;20039;-84
2022/12/06 09:34:38;;;;;;;23.45;12.60;;;;;;;3.97;100.00;101838.84;10238764;28;20114;-87
2022/12/06 09:39:43;;;;;;;15.60;10.23;;;;;;;4.10;100.00;101847.72;10277189;28;20569;-85
2022/12/06 09:45:04;;;;;;;17.40;9.60;;;;;;;4.06;100.00;101850.81;10276703;28;20109;-82
2022/12/06 09:50:15;;;;;;;12.10;7.47;;;;;;;4.22;100.00;101854.00;10282672;28;20049;-83
2022/12/06 09:55:34;;;;;;;18.10;10.10;;;;;;;4.11;100.00;101849.53;10283254;28;20043;-84
2022/12/06 10:00:43;;;;;;;12.82;8.90;;;;;;;3.91;100.00;101843.47;10314819;28;20203;-83
2022/12/06 10:06:01;;;;;;;21.20;10.10;;;;;;;4.10;100.00;101842.53;10287657;28;20038;-86
2022/12/06 10:11:39;;;;;;;20.92;10.88;;;;;;;4.53;100.00;101840.22;10305562;28;20049;-85
2022/12/06 10:16:49;;;;;;;14.50;7.57;;;;;;;4.67;100.00;101825.88;10319419;28;20077;-85
2022/12/06 10:22:16;;;;;;;10.98;7.32;;;;;;;4.73;100.00;101820.31;10323384;28;20098;-80
2022/12/06 10:27:32;;;;;;;13.75;7.05;;;;;;;4.54;100.00;101813.53;10324585;28;20126;-82
2022/12/06 10:33:04;;;;;;;14.82;7.78;;;;;;;4.47;100.00;101796.53;10324396;28;20129;-85
2022/12/06 10:38:12;;;;;;;15.43;8.23;;;;;;;4.53;100.00;101790.97;10286541;28;20039;-86
2022/12/06 10:43:40;;;;;;;12.15;7.05;;;;;;;4.43;100.00;101778.91;10269797;28;20035;-86
2022/12/06 10:48:48;;;;;;;13.57;6.65;;;;;;;4.67;100.00;101787.00;10286372;28;20126;-82
2022/12/06 10:53:55;;;;;;;11.95;7.80;;;;;;;4.87;100.00;101783.50;10268713;28;20066;-81
2022/12/06 10:58:59;;;;;;;12.77;9.25;;;;;;;4.53;100.00;101780.59;10284586;28;20384;-81
2022/12/06 11:04:01;;;;;;;10.82;6.55;;;;;;;4.97;100.00;101783.50;10293038;28;20034;-82
2022/12/06 11:09:22;;;;;;;8.75;5.00;;;;;;;5.91;100.00;101772.97;10305736;28;20045;-83
2022/12/06 11:14:22;;;;;;;9.23;5.05;;;;;;;6.06;100.00;101761.25;10289495;28;20066;-82
2022/12/06 11:19:43;;;;;;;10.45;6.18;;;;;;;7.16;100.00;101751.53;10287342;28;20043;-82
2022/12/06 11:24:50;;;;;;;9.23;4.50;;;;;;;7.20;96.22;101745.75;10299714;28;20034;-84
2022/12/06 11:29:52;;;;;;;8.02;3.70;;;;;;;7.68;96.84;101747.47;10304935;28;20052;-82
2022/12/06 11:34:54;;;;;;;24.83;16.45;;;;;;;8.80;86.41;101735.41;10242567;28;20040;-81
2022/12/06 11:40:06;;;;;;;7.25;3.95;;;;;;;8.17;88.46;101743.22;10227279;28;20679;-81
2022/12/06 11:45:13;;;;;;;19.85;12.00;;;;;;;8.83;82.26;101735.63;10277102;28;20749;-84
2022/12/06 11:50:16;;;;;;;9.45;4.68;;;;;;;7.60;85.36;101736.50;10275839;28;20038;-82
2022/12/06 11:55:25;;;;;;;8.30;5.30;;;;;;;7.72;91.39;101731.28;10300682;28;20401;-82
2022/12/06 12:00:27;;;;;;;14.20;4.43;;;;;;;9.62;83.39;101733.03;10250207;28;20440;-84
2022/12/06 12:05:37;;;;;;;9.52;3.92;;;;;;;10.49;71.65;101722.81;10303089;28;20046;-83
2022/12/06 12:10:57;;;;;;;4.70;2.80;;;;;;;9.34;73.43;101717.25;10274352;28;20038;-83
2022/12/06 12:16:18;;;;;;;8.00;4.05;;;;;;;8.02;81.52;101705.63;10272940;28;20031;-82
2022/12/06 12:21:28;;;;;;;5.28;2.70;;;;;;;8.56;82.64;101708.50;10260547;28;20384;-81
2022/12/06 12:26:37;;;;;;;5.50;3.67;;;;;;;7.69;82.47;101707.59;10257209;28;20041;-82
2022/12/06 12:31:55;;;;;;;7.10;3.28;;;;;;;7.42;86.26;101700.50;10266761;28;20098;-81
2022/12/06 12:36:59;;;;;;;5.43;2.75;;;;;;;7.90;81.25;101697.84;10318881;28;20038;-80
2022/12/06 12:42:00;;;;;;;5.32;3.13;;;;;;;6.29;86.73;101699.78;10265926;28;20035;-80
2022/12/06 12:47:19;;;;;;;6.75;3.50;;;;;;;5.77;94.97;101705.22;10259370;28;20039;-79
2022/12/06 12:52:29;;;;;;;9.18;3.05;;;;;;;6.51;96.93;101698.84;10265815;28;20043;-79
2022/12/06 12:57:30;;;;;;;8.52;2.85;;;;;;;8.58;82.96;101697.41;10280412;28;20579;-80
2022/12/06 13:02:30;;;;;;;5.20;2.30;;;;;;;8.10;81.70;101695.75;10281018;28;20041;-81
2022/12/06 13:07:35;;;;;;;5.53;2.95;;;;;;;8.18;85.59;101692.88;10277948;28;20122;-81
2022/12/06 13:12:49;;;;;;;9.35;7.65;;;;;;;8.65;81.89;101689.19;10261818;28;20411;-85
2022/12/06 13:17:52;;;;;;;6.55;3.67;;;;;;;8.03;80.14;101681.34;10278584;28;20039;-90
2022/12/06 13:22:57;;;;;;;7.25;4.88;;;;;;;6.74;84.87;101679.81;10262557;28;20410;-88
2022/12/06 13:27:59;;;;;;;17.30;6.22;;;;;;;5.87;88.13;101675.69;10277766;28;20042;-88
2022/12/06 13:33:20;;;;;;;8.67;4.43;;;;;;;5.40;94.09;101686.63;10277007;28;20085;-89
2022/12/06 13:38:23;;;;;;;7.15;5.32;;;;;;;6.48;90.88;101676.13;10267125;28;20043;-86
2022/12/06 13:43:24;;;;;;;8.18;3.92;;;;;;;6.49;89.95;101674.41;10296063;28;20035;-87
2022/12/06 13:48:24;;;;;;;7.38;3.83;;;;;;;5.98;90.89;101676.53;10301032;28;20042;-84
2022/12/06 13:53:26;;;;;;;7.25;3.72;;;;;;;6.86;87.66;101675.53;10319326;28;20122;-82
2022/12/06 13:58:27;;;;;;;7.07;4.15;;;;;;;6.73;84.93;101671.09;10300731;28;20034;-84
2022/12/06 14:03:27;;;;;;;7.28;4.28;;;;;;;6.16;84.61;101671.91;10311513;28;20046;-82
2022/12/06 14:08:34;;;;;;;8.50;3.78;;;;;;;6.66;83.49;101666.22;10288929;28;20043;-84
2022/12/06 14:13:35;;;;;;;11.05;3.70;;;;;;;5.94;86.48;101665.00;10279054;28;20039;-86
2022/12/06 14:18:37;;;;;;;7.68;3.33;;;;;;;5.43;89.21;101669.63;10259387;28;20043;-83
2022/12/06 14:23:45;;;;;;;18.67;5.10;;;;;;;5.10;92.26;101670.38;10260596;28;20031;-84
2022/12/06 14:28:45;;;;;;;8.07;4.82;;;;;;;4.50;94.29;101672.38;10261881;28;20097;-86
2022/12/06 14:33:46;;;;;;;8.95;5.07;;;;;;;3.96;97.90;101672.91;10275399;28;20377;-87
2022/12/06 14:38:57;;;;;;;13.95;4.05;;;;;;;3.61;100.00;101673.31;10276664;28;20450;-88
2022/12/06 14:43:58;;;;;;;8.20;4.22;;;;;;;3.27;100.00;101670.28;10275764;28;20058;-85
2022/12/06 14:54:26;;;;;;;15.70;5.75;;;;;;;2.66;100.00;101674.28;10280004;28;20126;-86
2022/12/06 14:59:27;;;;;;;7.93;4.82;;;;;;;2.46;100.00;101678.50;10280655;28;20043;-85
2022/12/06 15:04:34;;;;;;;7.28;4.35;;;;;;;2.46;100.00;101684.59;10266661;28;20039;-83
2022/12/06 15:09:42;;;;;;;12.32;5.93;;;;;;;2.58;100.00;101686.50;10268893;28;20471;-86
2022/12/06 15:14:47;;;;;;;11.07;5.88;;;;;;;2.64;100.00;101692.25;10266894;28;20601;-86
2022/12/06 15:19:50;;;;;;;9.70;5.13;;;;;;;2.72;100.00;101696.44;10299981;28;20046;-86
2022/12/06 15:24:53;;;;;;;14.15;5.78;;;;;;;2.77;100.00;101702.03;10283059;28;20042;-83
2022/12/06 15:29:54;;;;;;;8.88;5.65;;;;;;;2.79;100.00;101693.66;10279956;28;20050;-85
2022/12/06 15:34:54;;;;;;;10.07;6.13;;;;;;;2.85;100.00;101687.25;10260339;28;20483;-86
2022/12/06 15:39:56;;;;;;;9.80;4.90;;;;;;;2.98;100.00;101692.78;10280578;28;20097;-85
2022/12/06 15:44:56;;;;;;;8.77;5.80;;;;;;;2.97;100.00;101687.44;10282060;28;20491;-85
2022/12/06 15:49:57;;;;;;;11.63;7.30;;;;;;;2.93;100.00;101688.84;10279496;28;20035;-85
2022/12/06 15:54:57;;;;;;;15.32;5.72;;;;;;;2.96;100.00;101689.13;10270015;28;20886;-88
2022/12/06 15:59:59;;;;;;;8.90;5.75;;;;;;;2.86;100.00;101692.53;10302030;28;20506;-87
2022/12/06 16:04:59;;;;;;;11.43;6.60;;;;;;;2.83;100.00;101693.94;10284161;28;20043;-88
2022/12/06 16:10:00;;;;;;;10.27;6.40;;;;;;;2.82;100.00;101703.38;10278349;28;20050;-88
2022/12/06 16:15:01;;;;;;;12.52;7.38;;;;;;;2.85;100.00;101706.22;10281989;28;20386;-82
2022/12/06 16:25:25;;;;;;;16.67;6.50;;;;;;;2.86;100.00;101695.13;10241224;28;20039;-83
2022/12/06 16:30:32;;;;;;;10.38;5.53;;;;;;;2.76;100.00;101700.22;10246917;28;20126;-87
2022/12/06 16:35:32;;;;;;;30.88;7.13;;;;;;;2.70;100.00;101690.22;10319255;28;21026;-87
2022/12/06 16:40:33;;;;;;;9.07;5.95;;;;;;;2.63;100.00;101691.31;10320553;28;20050;-87
2022/12/06 16:45:37;;;;;;;16.85;9.18;;;;;;;2.61;100.00;101681.63;10318999;28;20125;-88
2022/12/06 16:50:38;;;;;;;14.30;7.85;;;;;;;2.59;100.00;101685.75;10281762;28;20042;-85
2022/12/06 16:55:39;;;;;;;10.80;6.20;;;;;;;2.47;100.00;101675.16;10279303;28;20046;-85
2022/12/06 17:00:40;;;;;;;15.67;7.87;;;;;;;2.46;100.00;101683.66;10279629;28;20042;-85
2022/12/06 17:05:41;;;;;;;15.43;9.07;;;;;;;2.51;100.00;101676.38;10278135;28;20066;-85
2022/12/06 17:10:42;;;;;;;15.27;9.27;;;;;;;2.58;100.00;101673.59;10224370;28;20086;-85
2022/12/06 17:15:42;;;;;;;14.88;8.63;;;;;;;2.51;100.00;101672.09;10279363;28;20070;-84
2022/12/06 17:20:43;;;;;;;12.50;7.20;;;;;;;2.38;100.00;101667.47;10277185;28;20100;-84
2022/12/06 17:25:43;;;;;;;12.80;8.05;;;;;;;2.41;100.00;101669.41;10262319;28;20074;-85
2022/12/06 17:30:44;;;;;;;16.13;9.07;;;;;;;2.38;100.00;101669.13;10277180;28;20376;-85
2022/12/06 17:35:44;;;;;;;19.65;9.77;;;;;;;2.40;100.00;101671.09;10278211;28;20047;-85
2022/12/06 17:40:45;;;;;;;23.80;11.10;;;;;;;2.42;100.00;101667.00;10276417;28;20082;-84
2022/12/06 17:45:45;;;;;;;12.82;9.32;;;;;;;2.51;100.00;101673.78;10278401;28;20380;-84
2022/12/06 17:50:46;;;;;;;15.23;8.38;;;;;;;2.53;100.00;101678.31;10277190;28;20069;-86
2022/12/06 17:55:46;;;;;;;18.70;9.55;;;;;;;2.63;100.00;101672.34;10279213;28;20487;-86
2022/12/06 18:00:47;;;;;;;17.73;10.23;;;;;;;2.62;100.00;101671.41;10276921;28;20066;-85
2022/12/06 18:05:47;;;;;;;18.98;9.70;;;;;;;2.64;100.00;101669.88;10269797;28;20476;-90
2022/12/06 18:10:56;;;;;;;20.75;10.75;;;;;;;2.65;100.00;101673.38;10273415;28;20035;-91
2022/12/06 18:15:57;;;;;;;16.95;9.73;;;;;;;2.71;100.00;101660.09;10276258;28;20454;-87
2022/12/06 18:20:58;;;;;;;17.60;9.27;;;;;;;2.73;100.00;101664.66;10274619;28;20038;-84
2022/12/06 18:26:02;;;;;;;20.50;10.95;;;;;;;2.73;100.00;101651.72;10266324;28;20380;-90
2022/12/06 18:31:03;;;;;;;18.45;10.38;;;;;;;2.76;100.00;101646.84;10269286;28;20106;-83
2022/12/06 18:36:04;;;;;;;17.75;11.48;;;;;;;2.68;100.00;101646.91;10286430;28;20106;-91
2022/12/06 18:41:07;;;;;;;16.77;9.17;;;;;;;2.62;100.00;101650.72;10270882;28;20042;-92
2022/12/06 18:46:11;;;;;;;15.15;9.57;;;;;;;2.67;100.00;101653.75;10274421;28;20074;-81
2022/12/06 18:51:14;;;;;;;20.83;9.07;;;;;;;2.70;100.00;101651.44;10282704;28;20185;-84
2022/12/06 18:56:16;;;;;;;19.58;10.27;;;;;;;2.72;100.00;101651.56;10282840;28;20046;-83
2022/12/06 19:01:18;;;;;;;;;;;;;;;2.79;100.00;101652.28;10282407;28;20047;-89
2022/12/06 19:06:23;;;;;;;19.52;11.80;;;;;;;2.78;100.00;101649.56;10247138;28;19968;-83
2022/12/06 19:11:24;;;;;;;28.83;11.68;;;;;;;2.84;100.00;101647.53;10284607;28;20065;-91
2022/12/06 19:16:35;;;;;;;27.08;11.57;;;;;;;2.81;100.00;101639.50;10267839;28;20499;-89
2022/12/06 19:21:35;;;;;;;17.73;8.98;;;;;;;2.82;100.00;101645.59;10283511;28;20062;-88
2022/12/06 19:26:36;;;;;;;13.90;10.10;;;;;;;2.74;100.00;101637.13;10283099;28;20065;-83
2022/12/06 19:31:36;;;;;;;18.55;11.35;;;;;;;2.71;100.00;101644.59;10259542;28;20066;-92
2022/12/06 19:36:37;;;;;;;15.98;9.40;;;;;;;2.69;100.00;101631.53;10286465;28;20041;-83
2022/12/06 19:46:57;;;;;;;22.08;12.93;;;;;;;2.70;100.00;101637.59;10281945;28;20411;-83
2022/12/06 19:51:58;;;;;;;24.00;11.90;;;;;;;2.69;100.00;101631.53;10266146;28;20042;-82
2022/12/06 19:56:59;;;;;;;22.17;15.70;;;;;;;2.74;100.00;101627.69;10281600;28;20035;-82
2022/12/06 20:01:59;;;;;;;30.95;14.85;;;;;;;2.84;100.00;101624.25;10280887;28;20042;-83
2022/12/06 20:07:00;;;;;;;27.50;15.48;;;;;;;2.97;100.00;101630.53;10301709;28;20038;-82
2022/12/06 20:12:01;;;;;;;25.17;17.13;;;;;;;3.02;100.00;101635.38;10263446;28;20101;-82
2022/12/06 20:17:12;;;;;;;20.60;14.27;;;;;;;3.11;100.00;101635.28;10282270;28;20043;-82
2022/12/06 20:22:14;;;;;;;19.10;13.47;;;;;;;3.14;100.00;101638.16;10260607;28;20063;-82
2022/12/06 20:27:14;;;;;;;17.10;13.47;;;;;;;3.13;100.00;101631.16;10277177;28;20876;-84
2022/12/06 20:32:15;;;;;;;20.35;12.50;;;;;;;3.12;100.00;101628.44;10280528;28;20039;-84
2022/12/06 20:37:15;;;;;;;23.08;14.18;;;;;;;3.07;100.00;101623.78;10263791;28;20066;-82
2022/12/06 20:42:16;;;;;;;18.55;13.57;;;;;;;3.06;100.00;101621.03;10280892;28;20051;-82
2022/12/06 20:47:16;;;;;;;29.05;13.43;;;;;;;3.04;100.00;101631.25;10278380;28;20049;-83
2022/12/06 20:52:17;;;;;;;17.60;12.15;;;;;;;3.03;100.00;101624.25;10279383;28;20401;-82
2022/12/06 20:57:17;;;;;;;16.45;12.32;;;;;;;3.07;100.00;101622.84;10278963;28;20526;-82
2022/12/06 21:02:18;;;;;;;18.55;12.60;;;;;;;3.09;100.00;101626.47;10281719;28;20046;-82
2022/12/06 21:07:18;;;;;;;20.00;14.13;;;;;;;3.06;100.00;101624.53;10278697;28;20045;-82
2022/12/06 21:12:21;;;;;;;23.45;16.02;;;;;;;3.02;100.00;101613.75;10278263;28;20042;-82
2022/12/06 21:17:21;;;;;;;;;;;;;;;2.80;100.00;101609.22;10280081;28;20046;-82
2022/12/06 21:22:21;;;;;;;26.83;17.80;;;;;;;2.64;100.00;101604.38;10280741;28;19949;-83
2022/12/06 21:27:22;;;;;;;25.88;17.30;;;;;;;2.39;100.00;101622.78;10278798;28;20081;-83
2022/12/06 21:32:24;;;;;;;21.42;17.35;;;;;;;2.27;100.00;101619.06;10279779;28;20643;-83
2022/12/06 21:37:25;;;;;;;23.45;16.33;;;;;;;2.16;100.00;101616.38;10276675;28;20495;-83
2022/12/06 21:42:25;;;;;;;30.02;20.67;;;;;;;2.23;100.00;101624.69;10278005;28;20125;-83
2022/12/06 21:47:26;;;;;;;26.48;19.58;;;;;;;2.34;100.00;101624.03;10275617;28;20043;-82
2022/12/06 21:52:26;;;;;;;30.40;22.17;;;;;;;2.45;100.00;101630.16;10279423;28;20062;-82
2022/12/06 21:57:27;;;;;;;36.42;24.40;;;;;;;2.54;100.00;101625.84;10277122;28;20492;-82
2022/12/06 22:02:27;;;;;;;33.05;22.25;;;;;;;2.62;100.00;101613.66;10279892;28;20047;-82
2022/12/06 22:07:30;;;;;;;38.75;23.42;;;;;;;2.66;100.00;101614.81;10275530;28;20479;-81
2022/12/06 22:12:30;;;;;;;38.17;24.02;;;;;;;2.62;100.00;101611.06;10280369;28;20050;-83
2022/12/06 22:17:31;;;;;;;28.05;22.17;;;;;;;2.46;100.00;101627.75;10277519;28;20541;-83
2022/12/06 22:22:32;;;;;;;32.00;23.70;;;;;;;2.48;100.00;101620.13;10276299;28;20039;-81
2022/12/06 22:27:32;;;;;;;31.60;24.15;;;;;;;2.57;100.00;101631.31;10261134;28;20070;-83
2022/12/06 22:32:33;;;;;;;37.15;22.73;;;;;;;2.52;100.00;101636.84;10277165;28;20130;-83
2022/12/06 22:37:33;;;;;;;32.58;23.58;;;;;;;2.52;100.00;101629.09;10274349;28;20042;-83
2022/12/06 22:42:34;;;;;;;37.40;27.42;;;;;;;2.59;100.00;101636.63;10278200;28;20062;-84
2022/12/06 22:47:34;;;;;;;34.15;27.27;;;;;;;2.65;100.00;101632.03;10276868;28;20490;-83
2022/12/06 22:52:35;;;;;;;40.88;27.65;;;;;;;2.67;100.00;101622.75;10275239;28;20038;-83
2022/12/06 22:57:36;;;;;;;34.97;24.77;;;;;;;2.51;100.00;101635.91;10275207;28;20050;-82
2022/12/06 23:02:36;;;;;;;33.00;25.30;;;;;;;2.50;100.00;101616.00;10278819;28;20073;-83
2022/12/06 23:07:37;;;;;;;36.78;25.25;;;;;;;2.42;100.00;101627.31;10276629;28;20042;-83
2022/12/06 23:12:38;;;;;;;33.30;24.02;;;;;;;2.15;100.00;101621.38;10282164;28;20042;-82
2022/12/06 23:17:38;;;;;;;34.42;26.40;;;;;;;1.92;100.00;101622.72;10284482;28;20049;-82
2022/12/06 23:22:39;;;;;;;37.47;25.40;;;;;;;1.82;100.00;101617.44;10283618;28;20070;-82
2022/12/06 23:27:39;;;;;;;41.45;28.83;;;;;;;1.86;100.00;101620.47;10251001;28;20439;-80
2022/12/06 23:32:40;;;;;;;41.72;29.52;;;;;;;1.88;100.00;101611.19;10281793;28;20498;-83
2022/12/06 23:37:40;;;;;;;40.10;30.50;;;;;;;1.92;100.00;101607.22;10282644;28;20039;-83
2022/12/06 23:42:41;;;;;;;42.20;32.10;;;;;;;1.83;100.00;101611.53;10280556;28;20177;-83